Terminal Aerodrome Forecast
Issued by NWS Louisville, KY

Home | Current Version | Previous Version | Text Only | Print | Product List | Glossary On
Versions: 1 2 3 4 5 6 7 8 9 10 11 12 13 14
000
FTUS43 KLMK 231120
TAFLEX
TAF
KLEX 231120Z 2312/2412 01012G17KT 6SM -SHRA BR OVC008
      TEMPO 2312/2316 4SM -SHRA BR OVC005
     FM231800 35013G18KT 4SM BR VCSH OVC008
     FM240200 32009KT 5SM BR OVC006=

USA.gov is the U.S. government's official web portal to all federal, state and local government web resources and services.